sensor_id;sensor_type;location;lat;lon;timestamp;P1;durP1;ratioP1;P2;durP2;ratioP2
15307;SDS011;7755;52.208;6.964;2023-03-01T00:02:49;12.07;;;10.87;;
15307;SDS011;7755;52.208;6.964;2023-03-01T00:06:52;11.33;;;10.17;;
15307;SDS011;7755;52.208;6.964;2023-03-01T00:11:02;11.40;;;10.30;;
15307;SDS011;7755;52.208;6.964;2023-03-01T00:15:09;12.27;;;10.10;;
15307;SDS011;7755;52.208;6.964;2023-03-01T00:19:16;14.00;;;11.20;;
15307;SDS011;7755;52.208;6.964;2023-03-01T00:23:21;11.60;;;10.50;;
15307;SDS011;7755;52.208;6.964;2023-03-01T00:27:24;12.90;;;11.50;;
15307;SDS011;7755;52.208;6.964;2023-03-01T00:31:29;14.13;;;11.43;;
15307;SDS011;7755;52.208;6.964;2023-03-01T00:35:34;13.57;;;10.63;;
15307;SDS011;7755;52.208;6.964;2023-03-01T00:39:37;12.33;;;11.03;;
15307;SDS011;7755;52.208;6.964;2023-03-01T00:43:40;11.63;;;10.20;;
15307;SDS011;7755;52.208;6.964;2023-03-01T00:47:45;13.87;;;12.00;;
15307;SDS011;7755;52.208;6.964;2023-03-01T00:51:48;15.63;;;11.50;;
15307;SDS011;7755;52.208;6.964;2023-03-01T00:55:51;12.60;;;11.17;;
15307;SDS011;7755;52.208;6.964;2023-03-01T00:59:54;14.27;;;11.53;;
15307;SDS011;7755;52.208;6.964;2023-03-01T01:03:59;10.97;;;9.80;;
15307;SDS011;7755;52.208;6.964;2023-03-01T01:08:03;11.73;;;9.53;;
15307;SDS011;7755;52.208;6.964;2023-03-01T01:12:07;16.60;;;11.40;;
15307;SDS011;7755;52.208;6.964;2023-03-01T01:16:11;12.43;;;9.97;;
15307;SDS011;7755;52.208;6.964;2023-03-01T01:20:15;15.17;;;10.70;;
15307;SDS011;7755;52.208;6.964;2023-03-01T01:24:20;11.67;;;10.10;;
15307;SDS011;7755;52.208;6.964;2023-03-01T01:28:23;12.87;;;10.37;;
15307;SDS011;7755;52.208;6.964;2023-03-01T01:32:26;10.70;;;9.57;;
15307;SDS011;7755;52.208;6.964;2023-03-01T01:36:31;10.00;;;8.90;;
15307;SDS011;7755;52.208;6.964;2023-03-01T01:40:34;11.60;;;8.83;;
15307;SDS011;7755;52.208;6.964;2023-03-01T01:44:45;11.27;;;9.13;;
15307;SDS011;7755;52.208;6.964;2023-03-01T01:48:50;9.60;;;8.60;;
15307;SDS011;7755;52.208;6.964;2023-03-01T01:52:59;10.27;;;9.03;;
15307;SDS011;7755;52.208;6.964;2023-03-01T01:57:05;9.97;;;9.07;;
15307;SDS011;7755;52.208;6.964;2023-03-01T02:01:11;12.83;;;9.90;;
15307;SDS011;7755;52.208;6.964;2023-03-01T02:05:15;10.53;;;9.43;;
15307;SDS011;7755;52.208;6.964;2023-03-01T02:09:24;10.70;;;9.40;;
15307;SDS011;7755;52.208;6.964;2023-03-01T02:13:30;11.00;;;9.13;;
15307;SDS011;7755;52.208;6.964;2023-03-01T02:17:33;11.17;;;9.40;;
15307;SDS011;7755;52.208;6.964;2023-03-01T02:21:38;10.67;;;9.17;;
15307;SDS011;7755;52.208;6.964;2023-03-01T02:25:51;10.03;;;8.97;;
15307;SDS011;7755;52.208;6.964;2023-03-01T02:30:00;10.50;;;9.43;;
15307;SDS011;7755;52.208;6.964;2023-03-01T02:34:04;10.00;;;9.00;;
15307;SDS011;7755;52.208;6.964;2023-03-01T02:38:08;10.37;;;8.83;;
15307;SDS011;7755;52.208;6.964;2023-03-01T02:42:13;10.33;;;8.40;;
15307;SDS011;7755;52.208;6.964;2023-03-01T02:46:21;11.63;;;9.63;;
15307;SDS011;7755;52.208;6.964;2023-03-01T02:50:37;10.50;;;9.07;;
15307;SDS011;7755;52.208;6.964;2023-03-01T02:54:56;11.40;;;9.83;;
15307;SDS011;7755;52.208;6.964;2023-03-01T02:59:04;11.33;;;9.73;;
15307;SDS011;7755;52.208;6.964;2023-03-01T03:03:12;10.77;;;9.67;;
15307;SDS011;7755;52.208;6.964;2023-03-01T03:07:16;10.30;;;9.30;;
15307;SDS011;7755;52.208;6.964;2023-03-01T03:11:19;15.13;;;10.60;;
15307;SDS011;7755;52.208;6.964;2023-03-01T03:15:23;10.87;;;9.77;;
15307;SDS011;7755;52.208;6.964;2023-03-01T03:19:28;10.53;;;9.00;;
15307;SDS011;7755;52.208;6.964;2023-03-01T03:23:31;10.77;;;9.67;;
15307;SDS011;7755;52.208;6.964;2023-03-01T03:27:35;11.20;;;9.93;;
15307;SDS011;7755;52.208;6.964;2023-03-01T03:31:38;13.07;;;10.80;;
15307;SDS011;7755;52.208;6.964;2023-03-01T03:35:44;10.73;;;9.63;;
15307;SDS011;7755;52.208;6.964;2023-03-01T03:39:48;13.73;;;10.53;;
15307;SDS011;7755;52.208;6.964;2023-03-01T03:43:51;10.97;;;9.90;;
15307;SDS011;7755;52.208;6.964;2023-03-01T03:47:54;13.23;;;9.87;;
15307;SDS011;7755;52.208;6.964;2023-03-01T03:51:58;11.40;;;9.87;;
15307;SDS011;7755;52.208;6.964;2023-03-01T03:56:01;12.13;;;10.70;;
15307;SDS011;7755;52.208;6.964;2023-03-01T04:00:08;13.17;;;11.03;;
15307;SDS011;7755;52.208;6.964;2023-03-01T04:04:15;11.83;;;10.00;;
15307;SDS011;7755;52.208;6.964;2023-03-01T04:08:22;13.27;;;11.97;;
15307;SDS011;7755;52.208;6.964;2023-03-01T04:12:25;11.90;;;10.77;;
15307;SDS011;7755;52.208;6.964;2023-03-01T04:16:28;12.27;;;11.00;;
15307;SDS011;7755;52.208;6.964;2023-03-01T04:20:32;12.50;;;11.30;;
15307;SDS011;7755;52.208;6.964;2023-03-01T04:24:38;13.40;;;12.07;;
15307;SDS011;7755;52.208;6.964;2023-03-01T04:28:41;12.30;;;11.03;;
15307;SDS011;7755;52.208;6.964;2023-03-01T04:32:46;12.20;;;11.00;;
15307;SDS011;7755;52.208;6.964;2023-03-01T04:36:49;12.03;;;10.77;;
15307;SDS011;7755;52.208;6.964;2023-03-01T04:40:54;13.03;;;10.50;;
15307;SDS011;7755;52.208;6.964;2023-03-01T04:44:58;10.70;;;9.67;;
15307;SDS011;7755;52.208;6.964;2023-03-01T04:49:01;13.13;;;10.37;;
15307;SDS011;7755;52.208;6.964;2023-03-01T04:53:04;11.37;;;10.17;;
15307;SDS011;7755;52.208;6.964;2023-03-01T04:57:09;10.80;;;9.70;;
15307;SDS011;7755;52.208;6.964;2023-03-01T05:01:13;10.53;;;9.43;;
15307;SDS011;7755;52.208;6.964;2023-03-01T05:05:19;10.53;;;9.40;;
15307;SDS011;7755;52.208;6.964;2023-03-01T05:09:27;11.50;;;10.30;;
15307;SDS011;7755;52.208;6.964;2023-03-01T05:13:31;10.90;;;9.80;;
15307;SDS011;7755;52.208;6.964;2023-03-01T05:17:35;11.23;;;9.70;;
15307;SDS011;7755;52.208;6.964;2023-03-01T05:21:38;10.10;;;9.10;;
15307;SDS011;7755;52.208;6.964;2023-03-01T05:26:04;11.70;;;10.50;;
15307;SDS011;7755;52.208;6.964;2023-03-01T05:30:16;10.67;;;9.60;;
15307;SDS011;7755;52.208;6.964;2023-03-01T05:34:22;10.93;;;9.83;;
15307;SDS011;7755;52.208;6.964;2023-03-01T05:38:26;13.00;;;10.47;;
15307;SDS011;7755;52.208;6.964;2023-03-01T05:42:29;13.87;;;12.37;;
15307;SDS011;7755;52.208;6.964;2023-03-01T05:46:34;15.37;;;12.53;;
15307;SDS011;7755;52.208;6.964;2023-03-01T05:55:06;12.33;;;10.93;;
15307;SDS011;7755;52.208;6.964;2023-03-01T05:59:10;13.83;;;10.83;;
15307;SDS011;7755;52.208;6.964;2023-03-01T06:03:17;12.03;;;10.87;;
15307;SDS011;7755;52.208;6.964;2023-03-01T06:07:20;12.73;;;10.77;;
15307;SDS011;7755;52.208;6.964;2023-03-01T06:11:23;11.57;;;10.43;;
15307;SDS011;7755;52.208;6.964;2023-03-01T06:15:26;12.60;;;11.30;;
15307;SDS011;7755;52.208;6.964;2023-03-01T06:19:31;16.50;;;12.37;;
15307;SDS011;7755;52.208;6.964;2023-03-01T06:23:34;12.67;;;11.37;;
15307;SDS011;7755;52.208;6.964;2023-03-01T06:27:37;20.73;;;10.90;;
15307;SDS011;7755;52.208;6.964;2023-03-01T06:31:41;13.87;;;12.07;;
15307;SDS011;7755;52.208;6.964;2023-03-01T06:35:46;13.10;;;11.60;;
15307;SDS011;7755;52.208;6.964;2023-03-01T06:39:50;14.33;;;11.10;;
15307;SDS011;7755;52.208;6.964;2023-03-01T06:43:53;14.10;;;11.80;;
15307;SDS011;7755;52.208;6.964;2023-03-01T06:48:02;12.77;;;11.43;;
15307;SDS011;7755;52.208;6.964;2023-03-01T06:52:08;12.73;;;11.33;;
15307;SDS011;7755;52.208;6.964;2023-03-01T06:56:11;14.00;;;12.17;;
15307;SDS011;7755;52.208;6.964;2023-03-01T07:00:15;13.70;;;12.00;;
15307;SDS011;7755;52.208;6.964;2023-03-01T07:04:19;11.93;;;10.60;;
15307;SDS011;7755;52.208;6.964;2023-03-01T07:08:23;13.77;;;12.20;;
15307;SDS011;7755;52.208;6.964;2023-03-01T07:12:26;13.77;;;11.53;;
15307;SDS011;7755;52.208;6.964;2023-03-01T07:16:29;13.37;;;11.90;;
15307;SDS011;7755;52.208;6.964;2023-03-01T07:20:33;12.77;;;11.00;;
15307;SDS011;7755;52.208;6.964;2023-03-01T07:24:38;14.97;;;13.23;;
15307;SDS011;7755;52.208;6.964;2023-03-01T07:28:41;14.13;;;12.43;;
15307;SDS011;7755;52.208;6.964;2023-03-01T07:32:44;13.40;;;12.00;;
15307;SDS011;7755;52.208;6.964;2023-03-01T07:36:47;13.10;;;11.67;;
15307;SDS011;7755;52.208;6.964;2023-03-01T07:40:52;16.60;;;13.30;;
15307;SDS011;7755;52.208;6.964;2023-03-01T07:44:56;12.57;;;11.33;;
15307;SDS011;7755;52.208;6.964;2023-03-01T07:48:59;12.97;;;11.30;;
15307;SDS011;7755;52.208;6.964;2023-03-01T07:53:02;11.37;;;10.03;;
15307;SDS011;7755;52.208;6.964;2023-03-01T07:57:07;11.77;;;10.57;;
15307;SDS011;7755;52.208;6.964;2023-03-01T08:01:11;12.53;;;11.30;;
15307;SDS011;7755;52.208;6.964;2023-03-01T08:05:16;12.47;;;11.27;;
15307;SDS011;7755;52.208;6.964;2023-03-01T08:09:19;13.33;;;11.70;;
15307;SDS011;7755;52.208;6.964;2023-03-01T08:13:24;13.87;;;11.77;;
15307;SDS011;7755;52.208;6.964;2023-03-01T08:17:27;12.87;;;11.30;;
15307;SDS011;7755;52.208;6.964;2023-03-01T08:21:30;11.73;;;10.53;;
15307;SDS011;7755;52.208;6.964;2023-03-01T08:25:33;13.37;;;9.93;;
15307;SDS011;7755;52.208;6.964;2023-03-01T08:29:38;12.57;;;10.83;;
15307;SDS011;7755;52.208;6.964;2023-03-01T08:33:42;12.67;;;10.70;;
15307;SDS011;7755;52.208;6.964;2023-03-01T08:37:45;12.93;;;11.43;;
15307;SDS011;7755;52.208;6.964;2023-03-01T08:41:48;13.93;;;11.70;;
15307;SDS011;7755;52.208;6.964;2023-03-01T08:45:52;11.43;;;9.33;;
15307;SDS011;7755;52.208;6.964;2023-03-01T08:49:56;13.13;;;11.33;;
15307;SDS011;7755;52.208;6.964;2023-03-01T08:53:59;10.93;;;9.77;;
15307;SDS011;7755;52.208;6.964;2023-03-01T08:58:02;9.97;;;8.97;;
15307;SDS011;7755;52.208;6.964;2023-03-01T09:02:08;13.47;;;10.17;;
15307;SDS011;7755;52.208;6.964;2023-03-01T09:06:14;11.13;;;9.93;;
15307;SDS011;7755;52.208;6.964;2023-03-01T09:10:18;9.60;;;8.73;;
15307;SDS011;7755;52.208;6.964;2023-03-01T09:14:22;9.80;;;8.90;;
15307;SDS011;7755;52.208;6.964;2023-03-01T09:18:26;10.40;;;9.27;;
15307;SDS011;7755;52.208;6.964;2023-03-01T09:22:29;10.20;;;8.83;;
15307;SDS011;7755;52.208;6.964;2023-03-01T09:26:32;9.87;;;8.97;;
15307;SDS011;7755;52.208;6.964;2023-03-01T09:30:35;11.73;;;8.50;;
15307;SDS011;7755;52.208;6.964;2023-03-01T09:34:40;8.40;;;7.50;;
15307;SDS011;7755;52.208;6.964;2023-03-01T09:38:57;9.10;;;8.07;;
15307;SDS011;7755;52.208;6.964;2023-03-01T09:43:03;8.00;;;7.17;;
15307;SDS011;7755;52.208;6.964;2023-03-01T09:47:16;7.47;;;6.77;;
15307;SDS011;7755;52.208;6.964;2023-03-01T09:51:23;8.53;;;6.90;;
15307;SDS011;7755;52.208;6.964;2023-03-01T09:55:30;6.67;;;6.07;;
15307;SDS011;7755;52.208;6.964;2023-03-01T09:59:39;6.83;;;6.07;;
15307;SDS011;7755;52.208;6.964;2023-03-01T10:03:55;7.87;;;5.77;;
15307;SDS011;7755;52.208;6.964;2023-03-01T10:12:40;11.60;;;6.53;;
15307;SDS011;7755;52.208;6.964;2023-03-01T10:16:46;6.83;;;5.93;;
15307;SDS011;7755;52.208;6.964;2023-03-01T10:20:55;7.63;;;6.10;;
15307;SDS011;7755;52.208;6.964;2023-03-01T10:25:02;6.93;;;6.23;;
15307;SDS011;7755;52.208;6.964;2023-03-01T10:29:07;7.70;;;6.90;;
15307;SDS011;7755;52.208;6.964;2023-03-01T10:33:14;7.73;;;6.97;;
15307;SDS011;7755;52.208;6.964;2023-03-01T10:37:20;8.53;;;6.63;;
15307;SDS011;7755;52.208;6.964;2023-03-01T10:41:27;7.33;;;6.73;;
15307;SDS011;7755;52.208;6.964;2023-03-01T10:45:32;7.87;;;7.07;;
15307;SDS011;7755;52.208;6.964;2023-03-01T10:49:37;8.00;;;7.13;;
15307;SDS011;7755;52.208;6.964;2023-03-01T10:53:41;7.77;;;7.07;;
15307;SDS011;7755;52.208;6.964;2023-03-01T10:57:46;8.47;;;7.67;;
15307;SDS011;7755;52.208;6.964;2023-03-01T11:02:01;7.87;;;7.17;;
15307;SDS011;7755;52.208;6.964;2023-03-01T11:06:24;7.90;;;7.20;;
15307;SDS011;7755;52.208;6.964;2023-03-01T11:10:29;7.10;;;6.40;;
15307;SDS011;7755;52.208;6.964;2023-03-01T11:14:36;7.83;;;7.13;;
15307;SDS011;7755;52.208;6.964;2023-03-01T11:18:42;8.57;;;6.47;;
15307;SDS011;7755;52.208;6.964;2023-03-01T11:22:49;7.73;;;7.00;;
15307;SDS011;7755;52.208;6.964;2023-03-01T11:26:56;7.30;;;6.67;;
15307;SDS011;7755;52.208;6.964;2023-03-01T11:31:04;7.40;;;6.73;;
15307;SDS011;7755;52.208;6.964;2023-03-01T11:35:12;8.57;;;7.77;;
15307;SDS011;7755;52.208;6.964;2023-03-01T11:39:22;8.60;;;6.93;;
15307;SDS011;7755;52.208;6.964;2023-03-01T11:43:33;7.57;;;6.83;;
15307;SDS011;7755;52.208;6.964;2023-03-01T11:47:50;7.63;;;6.87;;
15307;SDS011;7755;52.208;6.964;2023-03-01T11:52:06;8.33;;;7.60;;
15307;SDS011;7755;52.208;6.964;2023-03-01T11:56:32;7.37;;;6.70;;
15307;SDS011;7755;52.208;6.964;2023-03-01T12:00:45;8.37;;;7.47;;
15307;SDS011;7755;52.208;6.964;2023-03-01T12:05:20;8.47;;;7.67;;
15307;SDS011;7755;52.208;6.964;2023-03-01T12:09:38;7.97;;;7.17;;
15307;SDS011;7755;52.208;6.964;2023-03-01T12:18:24;8.07;;;7.27;;
15307;SDS011;7755;52.208;6.964;2023-03-01T12:22:47;7.43;;;6.60;;
15307;SDS011;7755;52.208;6.964;2023-03-01T12:27:24;9.80;;;7.83;;
15307;SDS011;7755;52.208;6.964;2023-03-01T12:36:41;7.50;;;6.80;;
15307;SDS011;7755;52.208;6.964;2023-03-01T12:41:13;12.23;;;7.37;;
15307;SDS011;7755;52.208;6.964;2023-03-01T12:50:11;6.50;;;5.90;;
15307;SDS011;7755;52.208;6.964;2023-03-01T12:54:20;6.37;;;5.87;;
15307;SDS011;7755;52.208;6.964;2023-03-01T12:58:31;6.73;;;6.13;;
15307;SDS011;7755;52.208;6.964;2023-03-01T13:02:52;6.37;;;5.77;;
15307;SDS011;7755;52.208;6.964;2023-03-01T13:07:04;6.00;;;5.50;;
15307;SDS011;7755;52.208;6.964;2023-03-01T13:11:26;6.33;;;5.73;;
15307;SDS011;7755;52.208;6.964;2023-03-01T13:15:32;5.97;;;5.33;;
15307;SDS011;7755;52.208;6.964;2023-03-01T13:19:37;5.87;;;5.03;;
15307;SDS011;7755;52.208;6.964;2023-03-01T13:23:43;7.50;;;5.50;;
15307;SDS011;7755;52.208;6.964;2023-03-01T13:27:50;5.43;;;5.03;;
15307;SDS011;7755;52.208;6.964;2023-03-01T13:31:58;5.37;;;4.93;;
15307;SDS011;7755;52.208;6.964;2023-03-01T13:36:06;5.67;;;5.17;;
15307;SDS011;7755;52.208;6.964;2023-03-01T13:44:53;6.40;;;4.90;;
15307;SDS011;7755;52.208;6.964;2023-03-01T13:48:58;4.33;;;3.93;;
15307;SDS011;7755;52.208;6.964;2023-03-01T13:53:01;5.40;;;4.90;;
15307;SDS011;7755;52.208;6.964;2023-03-01T13:57:12;5.27;;;4.70;;
15307;SDS011;7755;52.208;6.964;2023-03-01T14:01:26;5.33;;;4.77;;
15307;SDS011;7755;52.208;6.964;2023-03-01T14:05:33;4.83;;;4.43;;
15307;SDS011;7755;52.208;6.964;2023-03-01T14:09:37;6.27;;;5.70;;
15307;SDS011;7755;52.208;6.964;2023-03-01T14:13:48;7.70;;;5.67;;
15307;SDS011;7755;52.208;6.964;2023-03-01T14:18:14;4.93;;;4.53;;
15307;SDS011;7755;52.208;6.964;2023-03-01T14:22:25;4.57;;;4.17;;
15307;SDS011;7755;52.208;6.964;2023-03-01T14:26:29;4.53;;;4.13;;
15307;SDS011;7755;52.208;6.964;2023-03-01T14:30:36;4.37;;;3.93;;
15307;SDS011;7755;52.208;6.964;2023-03-01T14:34:43;4.77;;;4.37;;
15307;SDS011;7755;52.208;6.964;2023-03-01T14:38:49;5.30;;;4.43;;
15307;SDS011;7755;52.208;6.964;2023-03-01T14:42:52;5.20;;;4.70;;
15307;SDS011;7755;52.208;6.964;2023-03-01T14:46:58;5.03;;;4.53;;
15307;SDS011;7755;52.208;6.964;2023-03-01T14:51:04;4.50;;;4.17;;
15307;SDS011;7755;52.208;6.964;2023-03-01T14:55:13;5.83;;;4.33;;
15307;SDS011;7755;52.208;6.964;2023-03-01T14:59:21;4.67;;;4.20;;
15307;SDS011;7755;52.208;6.964;2023-03-01T15:03:26;4.20;;;3.80;;
15307;SDS011;7755;52.208;6.964;2023-03-01T15:07:34;5.10;;;4.27;;
15307;SDS011;7755;52.208;6.964;2023-03-01T15:11:42;5.37;;;4.83;;
15307;SDS011;7755;52.208;6.964;2023-03-01T15:15:46;4.87;;;4.47;;
15307;SDS011;7755;52.208;6.964;2023-03-01T15:19:52;4.27;;;3.93;;
15307;SDS011;7755;52.208;6.964;2023-03-01T15:23:57;4.83;;;4.33;;
15307;SDS011;7755;52.208;6.964;2023-03-01T15:28:22;5.13;;;4.47;;
15307;SDS011;7755;52.208;6.964;2023-03-01T15:32:28;4.93;;;4.00;;
15307;SDS011;7755;52.208;6.964;2023-03-01T15:36:36;4.97;;;4.33;;
15307;SDS011;7755;52.208;6.964;2023-03-01T15:40:49;5.17;;;4.67;;
15307;SDS011;7755;52.208;6.964;2023-03-01T15:45:06;6.07;;;4.70;;
15307;SDS011;7755;52.208;6.964;2023-03-01T15:49:19;6.43;;;5.83;;
15307;SDS011;7755;52.208;6.964;2023-03-01T15:53:30;5.53;;;5.03;;
15307;SDS011;7755;52.208;6.964;2023-03-01T15:57:33;5.83;;;5.23;;
15307;SDS011;7755;52.208;6.964;2023-03-01T16:01:39;5.83;;;4.93;;
15307;SDS011;7755;52.208;6.964;2023-03-01T16:05:43;5.27;;;4.70;;
15307;SDS011;7755;52.208;6.964;2023-03-01T16:09:47;5.50;;;5.10;;
15307;SDS011;7755;52.208;6.964;2023-03-01T16:13:50;5.40;;;4.90;;
15307;SDS011;7755;52.208;6.964;2023-03-01T16:17:55;5.90;;;5.40;;
15307;SDS011;7755;52.208;6.964;2023-03-01T16:21:59;5.60;;;5.10;;
15307;SDS011;7755;52.208;6.964;2023-03-01T16:26:02;7.97;;;5.93;;
15307;SDS011;7755;52.208;6.964;2023-03-01T16:30:06;7.43;;;5.73;;
15307;SDS011;7755;52.208;6.964;2023-03-01T16:34:12;6.60;;;6.00;;
15307;SDS011;7755;52.208;6.964;2023-03-01T16:38:15;5.70;;;5.20;;
15307;SDS011;7755;52.208;6.964;2023-03-01T16:42:18;7.53;;;5.50;;
15307;SDS011;7755;52.208;6.964;2023-03-01T16:46:22;5.67;;;5.13;;
15307;SDS011;7755;52.208;6.964;2023-03-01T16:50:28;5.80;;;5.27;;
15307;SDS011;7755;52.208;6.964;2023-03-01T16:54:31;6.53;;;5.73;;
15307;SDS011;7755;52.208;6.964;2023-03-01T16:58:34;7.10;;;6.50;;
15307;SDS011;7755;52.208;6.964;2023-03-01T17:02:39;6.53;;;5.93;;
15307;SDS011;7755;52.208;6.964;2023-03-01T17:06:44;6.17;;;5.60;;
15307;SDS011;7755;52.208;6.964;2023-03-01T17:10:48;6.20;;;5.60;;
15307;SDS011;7755;52.208;6.964;2023-03-01T17:14:51;6.93;;;6.23;;
15307;SDS011;7755;52.208;6.964;2023-03-01T17:18:54;6.53;;;5.33;;
15307;SDS011;7755;52.208;6.964;2023-03-01T17:22:58;7.27;;;6.57;;
15307;SDS011;7755;52.208;6.964;2023-03-01T17:27:02;7.93;;;7.13;;
15307;SDS011;7755;52.208;6.964;2023-03-01T17:31:05;8.00;;;7.20;;
15307;SDS011;7755;52.208;6.964;2023-03-01T17:35:09;7.57;;;6.87;;
15307;SDS011;7755;52.208;6.964;2023-03-01T17:39:15;7.50;;;6.70;;
15307;SDS011;7755;52.208;6.964;2023-03-01T17:43:18;7.57;;;6.10;;
15307;SDS011;7755;52.208;6.964;2023-03-01T17:47:21;7.40;;;6.60;;
15307;SDS011;7755;52.208;6.964;2023-03-01T17:51:25;5.97;;;5.47;;
15307;SDS011;7755;52.208;6.964;2023-03-01T17:55:30;7.83;;;6.63;;
15307;SDS011;7755;52.208;6.964;2023-03-01T17:59:34;7.57;;;6.50;;
15307;SDS011;7755;52.208;6.964;2023-03-01T18:03:38;7.10;;;6.40;;
15307;SDS011;7755;52.208;6.964;2023-03-01T18:07:47;6.47;;;5.87;;
15307;SDS011;7755;52.208;6.964;2023-03-01T18:11:53;6.77;;;6.13;;
15307;SDS011;7755;52.208;6.964;2023-03-01T18:15:56;7.77;;;6.63;;
15307;SDS011;7755;52.208;6.964;2023-03-01T18:20:02;7.83;;;7.10;;
15307;SDS011;7755;52.208;6.964;2023-03-01T18:24:06;10.43;;;7.83;;
15307;SDS011;7755;52.208;6.964;2023-03-01T18:28:11;11.07;;;8.17;;
15307;SDS011;7755;52.208;6.964;2023-03-01T18:32:15;11.23;;;8.57;;
15307;SDS011;7755;52.208;6.964;2023-03-01T18:36:19;8.67;;;7.73;;
15307;SDS011;7755;52.208;6.964;2023-03-01T18:40:24;7.80;;;7.03;;
15307;SDS011;7755;52.208;6.964;2023-03-01T18:44:28;9.60;;;8.40;;
15307;SDS011;7755;52.208;6.964;2023-03-01T18:48:32;8.70;;;7.83;;
15307;SDS011;7755;52.208;6.964;2023-03-01T18:52:36;9.40;;;8.17;;
15307;SDS011;7755;52.208;6.964;2023-03-01T18:56:40;9.30;;;8.40;;
15307;SDS011;7755;52.208;6.964;2023-03-01T19:00:46;10.07;;;7.53;;
15307;SDS011;7755;52.208;6.964;2023-03-01T19:04:49;8.23;;;7.27;;
15307;SDS011;7755;52.208;6.964;2023-03-01T19:08:52;8.43;;;7.43;;
15307;SDS011;7755;52.208;6.964;2023-03-01T19:12:56;8.53;;;6.73;;
15307;SDS011;7755;52.208;6.964;2023-03-01T19:17:00;7.03;;;6.33;;
15307;SDS011;7755;52.208;6.964;2023-03-01T19:21:04;8.10;;;7.10;;
15307;SDS011;7755;52.208;6.964;2023-03-01T19:25:08;7.10;;;6.40;;
15307;SDS011;7755;52.208;6.964;2023-03-01T19:29:12;7.10;;;6.37;;
15307;SDS011;7755;52.208;6.964;2023-03-01T19:33:16;8.87;;;7.10;;
15307;SDS011;7755;52.208;6.964;2023-03-01T19:37:19;8.43;;;7.17;;
15307;SDS011;7755;52.208;6.964;2023-03-01T19:41:24;8.57;;;7.77;;
15307;SDS011;7755;52.208;6.964;2023-03-01T19:45:27;11.53;;;7.37;;
15307;SDS011;7755;52.208;6.964;2023-03-01T19:49:35;8.87;;;7.70;;
15307;SDS011;7755;52.208;6.964;2023-03-01T19:53:40;9.77;;;8.73;;
15307;SDS011;7755;52.208;6.964;2023-03-01T19:57:43;9.37;;;8.47;;
15307;SDS011;7755;52.208;6.964;2023-03-01T20:01:46;10.40;;;8.17;;
15307;SDS011;7755;52.208;6.964;2023-03-01T20:05:50;10.13;;;9.03;;
15307;SDS011;7755;52.208;6.964;2023-03-01T20:09:54;9.50;;;8.47;;
15307;SDS011;7755;52.208;6.964;2023-03-01T20:13:57;9.30;;;8.37;;
15307;SDS011;7755;52.208;6.964;2023-03-01T20:18:01;9.60;;;8.70;;
15307;SDS011;7755;52.208;6.964;2023-03-01T20:22:07;10.67;;;8.17;;
15307;SDS011;7755;52.208;6.964;2023-03-01T20:26:10;9.20;;;8.30;;
15307;SDS011;7755;52.208;6.964;2023-03-01T20:30:17;11.00;;;9.90;;
15307;SDS011;7755;52.208;6.964;2023-03-01T20:34:20;11.07;;;9.77;;
15307;SDS011;7755;52.208;6.964;2023-03-01T20:38:25;13.10;;;11.20;;
15307;SDS011;7755;52.208;6.964;2023-03-01T20:42:28;14.00;;;11.33;;
15307;SDS011;7755;52.208;6.964;2023-03-01T20:46:32;12.07;;;10.10;;
15307;SDS011;7755;52.208;6.964;2023-03-01T20:50:38;11.77;;;10.33;;
15307;SDS011;7755;52.208;6.964;2023-03-01T20:54:49;14.00;;;11.73;;
15307;SDS011;7755;52.208;6.964;2023-03-01T20:58:53;10.87;;;9.30;;
15307;SDS011;7755;52.208;6.964;2023-03-01T21:02:58;11.97;;;9.67;;
15307;SDS011;7755;52.208;6.964;2023-03-01T21:07:01;9.67;;;8.63;;
15307;SDS011;7755;52.208;6.964;2023-03-01T21:11:06;10.80;;;9.70;;
15307;SDS011;7755;52.208;6.964;2023-03-01T21:15:10;16.43;;;11.93;;
15307;SDS011;7755;52.208;6.964;2023-03-01T21:19:28;12.10;;;10.80;;
15307;SDS011;7755;52.208;6.964;2023-03-01T21:23:32;14.07;;;12.13;;
15307;SDS011;7755;52.208;6.964;2023-03-01T21:27:38;22.17;;;17.43;;
15307;SDS011;7755;52.208;6.964;2023-03-01T21:31:41;22.77;;;17.73;;
15307;SDS011;7755;52.208;6.964;2023-03-01T21:35:45;19.43;;;17.03;;
15307;SDS011;7755;52.208;6.964;2023-03-01T21:39:48;21.47;;;16.57;;
15307;SDS011;7755;52.208;6.964;2023-03-01T21:43:53;20.83;;;17.80;;
15307;SDS011;7755;52.208;6.964;2023-03-01T21:47:59;20.37;;;16.77;;
15307;SDS011;7755;52.208;6.964;2023-03-01T21:52:02;17.33;;;15.57;;
15307;SDS011;7755;52.208;6.964;2023-03-01T21:56:07;17.03;;;13.60;;
15307;SDS011;7755;52.208;6.964;2023-03-01T22:00:13;16.77;;;13.47;;
15307;SDS011;7755;52.208;6.964;2023-03-01T22:04:20;17.47;;;14.13;;
15307;SDS011;7755;52.208;6.964;2023-03-01T22:08:26;16.70;;;14.27;;
15307;SDS011;7755;52.208;6.964;2023-03-01T22:12:30;15.87;;;13.60;;
15307;SDS011;7755;52.208;6.964;2023-03-01T22:16:35;17.07;;;14.43;;
15307;SDS011;7755;52.208;6.964;2023-03-01T22:20:39;15.80;;;12.70;;
15307;SDS011;7755;52.208;6.964;2023-03-01T22:24:43;22.83;;;17.47;;
15307;SDS011;7755;52.208;6.964;2023-03-01T22:28:46;16.83;;;14.50;;
15307;SDS011;7755;52.208;6.964;2023-03-01T22:32:50;20.67;;;16.10;;
15307;SDS011;7755;52.208;6.964;2023-03-01T22:36:53;21.13;;;15.90;;
15307;SDS011;7755;52.208;6.964;2023-03-01T22:40:56;18.83;;;15.50;;
15307;SDS011;7755;52.208;6.964;2023-03-01T22:45:00;22.67;;;16.87;;
15307;SDS011;7755;52.208;6.964;2023-03-01T22:49:04;23.53;;;17.47;;
15307;SDS011;7755;52.208;6.964;2023-03-01T22:53:07;26.70;;;17.17;;
15307;SDS011;7755;52.208;6.964;2023-03-01T22:57:10;21.97;;;17.77;;
15307;SDS011;7755;52.208;6.964;2023-03-01T23:01:14;23.83;;;17.07;;
15307;SDS011;7755;52.208;6.964;2023-03-01T23:05:19;22.20;;;17.73;;
15307;SDS011;7755;52.208;6.964;2023-03-01T23:09:23;28.37;;;19.53;;
15307;SDS011;7755;52.208;6.964;2023-03-01T23:13:27;26.37;;;18.77;;
15307;SDS011;7755;52.208;6.964;2023-03-01T23:17:30;28.33;;;20.40;;
15307;SDS011;7755;52.208;6.964;2023-03-01T23:21:35;26.37;;;18.27;;
15307;SDS011;7755;52.208;6.964;2023-03-01T23:25:38;32.50;;;22.13;;
15307;SDS011;7755;52.208;6.964;2023-03-01T23:29:42;32.83;;;22.17;;
15307;SDS011;7755;52.208;6.964;2023-03-01T23:33:46;33.03;;;23.67;;
15307;SDS011;7755;52.208;6.964;2023-03-01T23:37:50;30.43;;;21.20;;
15307;SDS011;7755;52.208;6.964;2023-03-01T23:41:53;35.60;;;24.27;;
15307;SDS011;7755;52.208;6.964;2023-03-01T23:45:56;35.50;;;25.23;;
15307;SDS011;7755;52.208;6.964;2023-03-01T23:49:59;34.90;;;24.50;;
15307;SDS011;7755;52.208;6.964;2023-03-01T23:54:03;35.77;;;26.10;;
15307;SDS011;7755;52.208;6.964;2023-03-01T23:58:07;37.43;;;26.37;;
